Time;durP1;ratioP1;P1;durP2;ratioP2;P2;SDS_P1;SDS_P2;PMS_P1;PMS_P2;Temp;Humidity;BMP_temperature;BMP_pressure;BME280_temperature;BME280_humidity;BME280_pressure;Samples;Min_cycle;Max_cycle;Signal;HPM_P1;HPM_P2
2022/05/24 00:07:18;;;;;;;;;;;;;;;;;;21166881;28;19930;-69
2022/05/24 00:17:20;;;;;;;;;;;;;;;;;;21165285;28;20291;-68
2022/05/24 00:27:21;;;;;;;;;;;;;;;;;;21165589;28;19935;-69
2022/05/24 00:37:25;;;;;;;;;;;;;;;;;;21162823;28;20217;-68
2022/05/24 00:47:27;;;;;;;;;;;;;;;;;;21163477;28;19927;-69
2022/05/24 00:57:29;;;;;;;;;;;;;;;;;;21163151;28;19971;-69
2022/05/24 01:07:31;;;;;;;;;;;;;;;;;;21162570;28;20438;-61
2022/05/24 01:17:33;;;;;;;;;;;;;;;;;;21163747;28;19924;-62
2022/05/24 01:27:36;;;;;;;;;;;;;;;;;;21161684;28;20299;-62
2022/05/24 01:37:38;;;;;;;;;;;;;;;;;;21160811;28;19952;-62
2022/05/24 01:47:42;;;;;;;;;;;;;;;;;;21176757;28;19932;-60
2022/05/24 01:57:51;;;;;;;;;;;;;;;;;;21177390;28;20300;-60
2022/05/24 02:07:54;;;;;;;;;;;;;;;;;;21176194;28;20261;-62
2022/05/24 02:17:57;;;;;;;;;;;;;;;;;;21174053;28;19923;-61
2022/05/24 02:27:59;;;;;;;;;;;;;;;;;;21172965;28;19923;-60
2022/05/24 02:38:02;;;;;;;;;;;;;;;;;;21172365;28;19924;-61
2022/05/24 02:48:04;;;;;;;;;;;;;;;;;;21171484;28;19924;-61
2022/05/24 02:58:08;;;;;;;;;;;;;;;;;;21170296;28;19946;-62
2022/05/24 03:18:31;;;;;;;;;;;;;;;;;;21169587;28;20257;-62
2022/05/24 03:28:34;;;;;;;;;;;;;;;;;;21168969;28;19924;-63
2022/05/24 03:38:36;;;;;;;;;;;;;;;;;;21167709;28;20394;-70
2022/05/24 03:48:38;;;;;;;;;;;;;;;;;;21182013;27;20279;-70
2022/05/24 03:58:42;;;;;;;;;;;;;;;;;;21166050;28;19927;-69
2022/05/24 04:08:45;;;;;;;;;;;;;;;;;;21167287;28;19930;-62
2022/05/24 04:18:47;;;;;;;;;;;;;;;;;;21089860;28;19931;-65
2022/05/24 04:28:52;;;;;;;;;;;;;;;;;;21080926;28;19938;-62
2022/05/24 04:38:53;;;;;;;;;;;;;;;;;;21079610;28;19927;-61
2022/05/24 04:48:56;;;;;;;;;;;;;;;;;;21078469;28;20061;-67
2022/05/24 04:58:57;;;;;;;;;;;;;;;;;;21077979;28;19959;-61
2022/05/24 05:08:59;;;;;;;;;;;;;;;;;;21078050;28;19924;-63
2022/05/24 05:19:01;;;;;;;;;;;;;;;;;;21087693;28;19924;-60
2022/05/24 05:29:03;;;;;;;;;;;;;;;;;;21094178;28;19962;-60
2022/05/24 05:39:05;;;;;;;;;;;;;;;;;;21100209;28;19931;-69
2022/05/24 05:49:09;;;;;;;;;;;;;;;;;;21093022;28;20406;-69
2022/05/24 05:59:12;;;;;;;;;;;;;;;;;;21090971;28;19935;-62
2022/05/24 06:09:14;;;;;;;;;;;;;;;;;;21091388;28;19934;-62
2022/05/24 06:19:15;;;;;;;;;;;;;;;;;;21089050;28;19983;-64
2022/05/24 06:29:18;;;;;;;;;;;;;;;;;;21087559;28;19931;-62
2022/05/24 06:39:19;;;;;;;;;;;;;;;;;;21087057;28;19938;-63
2022/05/24 06:49:21;;;;;;;;;;;;;;;;;;21087614;28;19931;-62
2022/05/24 07:09:43;;;;;;;;;;;21.00;46.10;;;;;;21084938;28;19933;-68
2022/05/24 07:19:45;;;;;;;;;;;21.20;46.20;;;;;;21084166;28;19924;-67
2022/05/24 07:29:48;;;;;;;;;;;;;;;;;;21084430;28;19924;-63
2022/05/24 07:45:47;;;;;;;;;;;22.70;43.20;;;;;;21083273;28;20365;-61
2022/05/24 07:50:11;;;;;;;;;;;22.20;43.60;;;;;;21084892;28;19924;-61
2022/05/24 08:00:13;;;;;;;;;;;22.60;43.50;;;;;;21082257;28;19982;-63
2022/05/24 08:10:15;;;;;;;;;;;22.60;43.30;;;;;;21081721;28;20018;-61
2022/05/24 08:20:17;;;;;;;;;;;;;;;;;;21081595;28;19967;-61
2022/05/24 08:30:19;;;;;;;;;;;23.90;41.10;;;;;;21080742;28;19931;-63
2022/05/24 08:40:22;;;;;;;;;;;23.20;41.60;;;;;;21079789;28;20027;-66
2022/05/24 08:50:24;;;;;;;;;;;23.30;41.40;;;;;;21077955;28;19981;-61
2022/05/24 09:00:29;;;;;;;;;;;23.30;41.10;;;;;;21077909;28;19931;-62
2022/05/24 09:10:33;;;;;;;;;;;;;;;;;;21076503;28;19924;-61
2022/05/24 09:20:44;;;;;;;;;;;24.60;40.20;;;;;;21078201;28;19955;-62
2022/05/24 09:30:46;;;;;;;;;;;24.60;40.10;;;;;;21076190;28;19928;-61
2022/05/24 09:40:49;;;;;;;;;;;;;;;;;;21076880;28;20347;-58
2022/05/24 09:50:52;;;;;;;;;;;25.60;38.50;;;;;;21075879;28;20399;-59
2022/05/24 10:00:56;;;;;;;;;;;24.40;40.30;;;;;;21078283;28;20022;-63
2022/05/24 10:10:58;;;;;;;;;;;24.20;40.10;;;;;;21090792;28;19932;-67
2022/05/24 10:21:03;;;;;;;;;;;24.30;39.30;;;;;;21050028;28;19954;-57
2022/05/24 10:31:13;;;;;;;;;;;24.30;39.20;;;;;;21007030;28;20316;-58
2022/05/24 10:41:33;;;;;;;;;;;24.00;40.50;;;;;;21003954;28;20019;-68
2022/05/24 10:51:37;;;;;;;;;;;24.70;39.00;;;;;;21005857;28;19931;-65
2022/05/24 11:01:44;;;;;;;;;;;25.40;38.40;;;;;;21003248;28;20319;-66
2022/05/24 11:11:46;;;;;;;;;;;;;;;;;;21000518;28;20068;-62
2022/05/24 11:21:48;;;;;;;;;;;;;;;;;;21002430;28;19925;-60
2022/05/24 11:31:50;;;;;;;;;;;;;;;;;;21007024;28;19924;-60
2022/05/24 11:41:52;;;;;;;;;;;;;;;;;;21002522;28;20341;-75
2022/05/24 11:51:54;;;;;;;;;;;;;;;;;;21001925;28;20395;-69
2022/05/24 12:01:56;;;;;;;;;;;;;;;;;;21000027;28;19924;-64
2022/05/24 12:11:58;;;;;;;;;;;;;;;;;;21004987;28;19924;-63
2022/05/24 12:22:00;;;;;;;;;;;;;;;;;;21013847;28;19960;-64
2022/05/24 12:32:02;;;;;;;;;;;;;;;;;;20996232;28;20007;-65
2022/05/24 12:42:04;;;;;;;;;;;;;;;;;;20996168;28;19928;-65
2022/05/24 12:52:05;;;;;;;;;;;;;;;;;;20994465;28;19925;-64
2022/05/24 13:02:08;;;;;;;;;;;;;;;;;;20994561;28;20234;-64
2022/05/24 13:12:09;;;;;;;;;;;;;;;;;;20995538;28;19963;-63
2022/05/24 13:22:12;;;;;;;;;;;;;;;;;;20993975;28;20301;-62
2022/05/24 13:42:35;;;;;;;;;;;;;;;;;;21006708;28;19932;-65
2022/05/24 13:52:38;;;;;;;;;;;;;;;;;;21008208;28;19989;-65
2022/05/24 14:02:40;;;;;;;;;;;;;;;;;;21023281;28;19924;-64
2022/05/24 14:12:42;;;;;;;;;;;;;;;;;;21006896;28;19947;-61
2022/05/24 14:22:44;;;;;;;;;;;;;;;;;;21005806;28;19924;-64
2022/05/24 14:32:46;;;;;;;;;;;;;;;;;;21006415;28;19928;-62
2022/05/24 14:42:47;;;;;;;;;;;;;;;;;;21004295;28;19924;-62
2022/05/24 14:52:49;;;;;;;;;;;;;;;;;;21003460;28;20399;-63
2022/05/24 15:02:51;;;;;;;;;;;;;;;;;;21019282;28;20392;-63
2022/05/24 15:23:14;;;;;;;;;;;;;;;;;;21003770;28;19925;-61
2022/05/24 15:33:19;;;;;;;;;;;;;;;;;;21001586;28;19924;-71
2022/05/24 15:43:22;;;;;;;;;;;;;;;;;;21004364;28;19934;-70
2022/05/24 15:53:23;;;;;;;;;;;;;;;;;;21003063;28;19929;-63
2022/05/24 16:03:25;;;;;;;;;;;;;;;;;;20998213;28;19932;-62
2022/05/24 16:13:27;;;;;;;;;;;;;;;;;;20997460;28;20505;-60
2022/05/24 16:23:29;;;;;;;;;;;;;;;;;;20997432;28;20394;-66
2022/05/24 16:33:31;;;;;;;;;;;;;;;;;;20996989;28;20422;-63
2022/05/24 16:43:33;;;;;;;;;;;;;;;;;;20995831;28;19928;-62
2022/05/24 16:53:35;;;;;;;;;;;;;;;;;;21010180;28;19924;-62
2022/05/24 17:03:37;;;;;;;;;;;;;;;;;;21008902;28;20304;-61
2022/05/24 17:13:39;;;;;;;;;;;;;;;;;;21001722;28;19938;-64
2022/05/24 17:23:41;;;;;;;;;;;;;;;;;;21054870;28;19931;-66
2022/05/24 17:33:42;;;;;;;;;;;;;;;;;;21056275;28;20398;-57
2022/05/24 17:43:44;;;;;;;;;;;;;;;;;;21019410;28;19924;-59
2022/05/24 17:53:46;;;;;;;;;;;;;;;;;;21054277;28;20276;-59
2022/05/24 18:03:48;;;;;;;;;;;;;;;;;;21090292;28;19924;-58
2022/05/24 18:13:50;;;;;;;;;;;;;;;;;;21090093;28;20007;-58
2022/05/24 18:23:51;;;;;;;;;;;;;;;;;;21089056;28;20066;-59
2022/05/24 18:33:53;;;;;;;;;;;;;;;;;;21090208;28;20026;-59
2022/05/24 18:43:55;;;;;;;;;;;;;;;;;;21088056;28;19928;-58
2022/05/24 18:53:57;;;;;;;;;;;;;;;;;;21087059;28;19924;-59
2022/05/24 19:03:59;;;;;;;;;;;;;;;;;;21087579;28;20257;-61
2022/05/24 19:14:01;;;;;;;;;;;;;;;;;;21085471;28;19924;-60
2022/05/24 19:24:03;;;;;;;;;;;;;;;;;;21085017;28;20131;-61
2022/05/24 19:34:05;;;;;;;;;;;;;;;;;;21083691;28;19931;-58
2022/05/24 19:44:08;;;;;;;;;;;;;;;;;;21083803;28;19931;-59
2022/05/24 19:54:10;;;;;;;;;;;;;;;;;;21082503;28;19924;-60
2022/05/24 20:04:12;;;;;;;;;;;;;;;;;;21082337;28;19928;-60
2022/05/24 20:14:14;;;;;;;;;;;;;;;;;;21080754;28;20011;-61
2022/05/24 20:24:16;;;;;;;;;;;;;;;;;;21080431;28;19924;-59
2022/05/24 20:34:18;;;;;;;;;;;;;;;;;;21079698;28;19924;-59
2022/05/24 20:44:20;;;;;;;;;;;;;;;;;;21079298;28;20284;-58
2022/05/24 20:54:22;;;;;;;;;;;;;;;;;;21078871;28;19967;-59
2022/05/24 21:04:27;;;;;;;;;;;;;;;;;;21078052;28;20268;-61
2022/05/24 21:14:29;;;;;;;;;;;;;;;;;;21078896;28;20376;-59
2022/05/24 21:24:30;;;;;;;;;;;;;;;;;;21094093;28;19924;-60
2022/05/24 21:34:32;;;;;;;;;;;;;;;;;;21078242;28;19970;-59
2022/05/24 21:44:34;;;;;;;;;;;17.00;39.80;;;;;;21077975;28;19939;-60
2022/05/24 21:54:36;;;;;;;;;;;;;;;;;;21077063;28;19931;-61
2022/05/24 22:04:38;;;;;;;;;;;;;;;;;;21092467;28;20061;-61
2022/05/24 22:14:40;;;;;;;;;;;;;;;;;;21090948;28;19924;-58
2022/05/24 22:24:42;;;;;;;;;;;;;;;;;;21107937;28;20280;-60
2022/05/24 22:34:44;;;;;;;;;;;;;;;;;;21089648;28;19975;-58
2022/05/24 22:44:55;;;;;;;;;;;;;;;;;;21088951;28;19931;-57
2022/05/24 22:54:57;;;;;;;;;;;;;;;;;;21103796;28;20022;-59
2022/05/24 23:04:59;;;;;;;;;;;;;;;;;;21088139;28;20415;-57
2022/05/24 23:15:01;;;;;;;;;;;;;;;;;;21085936;28;19962;-57
2022/05/24 23:25:03;;;;;;;;;;;;;;;;;;21086190;28;20015;-58
2022/05/24 23:35:05;;;;;;;;;;;;;;;;;;21085261;28;19977;-58
2022/05/24 23:45:07;;;;;;;;;;;;;;;;;;21085003;28;20368;-58
2022/05/24 23:55:09;;;;;;;;;;;;;;;;;;21082678;28;19924;-58
